sensor_id;sensor_type;location;lat;lon;timestamp;P1;durP1;ratioP1;P2;durP2;ratioP2
19782;SDS011;10051;40.294;-3.754;2022-11-20T00:00:50;2.70;;;0.55;;
19782;SDS011;10051;40.294;-3.754;2022-11-20T00:03:15;0.90;;;0.50;;
19782;SDS011;10051;40.294;-3.754;2022-11-20T00:05:42;1.27;;;0.60;;
19782;SDS011;10051;40.294;-3.754;2022-11-20T00:08:08;1.45;;;0.50;;
19782;SDS011;10051;40.294;-3.754;2022-11-20T00:10:35;1.55;;;0.40;;
19782;SDS011;10051;40.294;-3.754;2022-11-20T00:13:02;1.38;;;0.40;;
19782;SDS011;10051;40.294;-3.754;2022-11-20T00:15:28;0.70;;;0.40;;
19782;SDS011;10051;40.294;-3.754;2022-11-20T00:17:53;1.05;;;0.40;;
19782;SDS011;10051;40.294;-3.754;2022-11-20T00:20:19;0.73;;;0.50;;
19782;SDS011;10051;40.294;-3.754;2022-11-20T00:22:44;0.40;;;0.40;;
19782;SDS011;10051;40.294;-3.754;2022-11-20T00:25:10;0.50;;;0.40;;
19782;SDS011;10051;40.294;-3.754;2022-11-20T00:27:36;0.30;;;0.30;;
19782;SDS011;10051;40.294;-3.754;2022-11-20T00:30:02;0.40;;;0.40;;
19782;SDS011;10051;40.294;-3.754;2022-11-20T00:32:29;1.23;;;0.65;;
19782;SDS011;10051;40.294;-3.754;2022-11-20T00:34:55;0.82;;;0.50;;
19782;SDS011;10051;40.294;-3.754;2022-11-20T00:37:20;0.60;;;0.45;;
19782;SDS011;10051;40.294;-3.754;2022-11-20T00:39:46;1.98;;;0.50;;
19782;SDS011;10051;40.294;-3.754;2022-11-20T00:42:11;0.47;;;0.40;;
19782;SDS011;10051;40.294;-3.754;2022-11-20T00:44:37;1.27;;;0.45;;
19782;SDS011;10051;40.294;-3.754;2022-11-20T00:47:03;0.50;;;0.45;;
19782;SDS011;10051;40.294;-3.754;2022-11-20T00:49:28;3.35;;;0.50;;
19782;SDS011;10051;40.294;-3.754;2022-11-20T00:51:54;0.50;;;0.50;;
19782;SDS011;10051;40.294;-3.754;2022-11-20T00:54:19;1.42;;;0.50;;
19782;SDS011;10051;40.294;-3.754;2022-11-20T00:56:45;0.82;;;0.57;;
19782;SDS011;10051;40.294;-3.754;2022-11-20T00:59:10;0.70;;;0.50;;
19782;SDS011;10051;40.294;-3.754;2022-11-20T01:01:36;0.55;;;0.50;;
19782;SDS011;10051;40.294;-3.754;2022-11-20T01:04:03;0.80;;;0.50;;
19782;SDS011;10051;40.294;-3.754;2022-11-20T01:06:29;1.20;;;0.60;;
19782;SDS011;10051;40.294;-3.754;2022-11-20T01:08:58;1.30;;;0.40;;
19782;SDS011;10051;40.294;-3.754;2022-11-20T01:11:29;0.65;;;0.45;;
19782;SDS011;10051;40.294;-3.754;2022-11-20T01:14:00;0.47;;;0.40;;
19782;SDS011;10051;40.294;-3.754;2022-11-20T01:16:31;0.45;;;0.38;;
19782;SDS011;10051;40.294;-3.754;2022-11-20T01:18:59;0.40;;;0.40;;
19782;SDS011;10051;40.294;-3.754;2022-11-20T01:21:30;0.63;;;0.40;;
19782;SDS011;10051;40.294;-3.754;2022-11-20T01:24:00;1.38;;;0.50;;
19782;SDS011;10051;40.294;-3.754;2022-11-20T01:26:30;0.32;;;0.32;;
19782;SDS011;10051;40.294;-3.754;2022-11-20T01:28:57;0.85;;;0.40;;
19782;SDS011;10051;40.294;-3.754;2022-11-20T01:31:24;1.40;;;0.30;;
19782;SDS011;10051;40.294;-3.754;2022-11-20T01:33:55;1.45;;;0.50;;
19782;SDS011;10051;40.294;-3.754;2022-11-20T01:36:24;0.85;;;0.40;;
19782;SDS011;10051;40.294;-3.754;2022-11-20T01:38:51;0.85;;;0.40;;
19782;SDS011;10051;40.294;-3.754;2022-11-20T01:41:22;0.75;;;0.50;;
19782;SDS011;10051;40.294;-3.754;2022-11-20T01:44:08;0.70;;;0.50;;
19782;SDS011;10051;40.294;-3.754;2022-11-20T01:46:36;0.50;;;0.40;;
19782;SDS011;10051;40.294;-3.754;2022-11-20T01:49:16;0.70;;;0.40;;
19782;SDS011;10051;40.294;-3.754;2022-11-20T01:52:03;2.75;;;0.43;;
19782;SDS011;10051;40.294;-3.754;2022-11-20T01:54:36;1.40;;;0.30;;
19782;SDS011;10051;40.294;-3.754;2022-11-20T01:57:08;0.93;;;0.40;;
19782;SDS011;10051;40.294;-3.754;2022-11-20T01:59:38;0.80;;;0.60;;
19782;SDS011;10051;40.294;-3.754;2022-11-20T02:02:10;1.08;;;0.40;;
19782;SDS011;10051;40.294;-3.754;2022-11-20T02:04:35;0.60;;;0.40;;
19782;SDS011;10051;40.294;-3.754;2022-11-20T02:07:02;0.98;;;0.50;;
19782;SDS011;10051;40.294;-3.754;2022-11-20T02:09:30;2.60;;;0.70;;
19782;SDS011;10051;40.294;-3.754;2022-11-20T02:11:55;1.50;;;0.70;;
19782;SDS011;10051;40.294;-3.754;2022-11-20T02:14:21;1.83;;;0.52;;
19782;SDS011;10051;40.294;-3.754;2022-11-20T02:16:48;1.42;;;0.60;;
19782;SDS011;10051;40.294;-3.754;2022-11-20T02:24:27;3.03;;;0.85;;
19782;SDS011;10051;40.294;-3.754;2022-11-20T02:26:54;1.52;;;0.68;;
19782;SDS011;10051;40.294;-3.754;2022-11-20T02:29:44;0.90;;;0.60;;
19782;SDS011;10051;40.294;-3.754;2022-11-20T02:32:39;1.40;;;0.50;;
19782;SDS011;10051;40.294;-3.754;2022-11-20T02:37:49;0.95;;;0.50;;
19782;SDS011;10051;40.294;-3.754;2022-11-20T02:40:18;1.02;;;0.50;;
19782;SDS011;10051;40.294;-3.754;2022-11-20T02:42:44;0.75;;;0.60;;
19782;SDS011;10051;40.294;-3.754;2022-11-20T02:45:10;1.13;;;0.52;;
19782;SDS011;10051;40.294;-3.754;2022-11-20T02:47:35;2.00;;;0.55;;
19782;SDS011;10051;40.294;-3.754;2022-11-20T02:50:01;1.33;;;0.70;;
19782;SDS011;10051;40.294;-3.754;2022-11-20T02:52:28;1.17;;;0.70;;
19782;SDS011;10051;40.294;-3.754;2022-11-20T02:54:54;2.03;;;0.82;;
19782;SDS011;10051;40.294;-3.754;2022-11-20T02:57:19;1.63;;;0.80;;
19782;SDS011;10051;40.294;-3.754;2022-11-20T02:59:45;1.40;;;0.70;;
19782;SDS011;10051;40.294;-3.754;2022-11-20T03:02:10;1.48;;;0.88;;
19782;SDS011;10051;40.294;-3.754;2022-11-20T03:04:36;1.60;;;0.73;;
19782;SDS011;10051;40.294;-3.754;2022-11-20T03:07:02;1.77;;;0.80;;
19782;SDS011;10051;40.294;-3.754;2022-11-20T03:09:28;1.70;;;0.80;;
19782;SDS011;10051;40.294;-3.754;2022-11-20T03:11:53;1.60;;;0.98;;
19782;SDS011;10051;40.294;-3.754;2022-11-20T03:14:19;1.58;;;1.00;;
19782;SDS011;10051;40.294;-3.754;2022-11-20T03:16:44;2.40;;;1.13;;
19782;SDS011;10051;40.294;-3.754;2022-11-20T03:19:10;2.80;;;1.10;;
19782;SDS011;10051;40.294;-3.754;2022-11-20T03:21:37;1.45;;;0.90;;
19782;SDS011;10051;40.294;-3.754;2022-11-20T03:24:02;2.38;;;0.90;;
19782;SDS011;10051;40.294;-3.754;2022-11-20T03:26:28;1.70;;;1.00;;
19782;SDS011;10051;40.294;-3.754;2022-11-20T03:28:55;1.85;;;1.00;;
19782;SDS011;10051;40.294;-3.754;2022-11-20T03:31:24;2.90;;;1.00;;
19782;SDS011;10051;40.294;-3.754;2022-11-20T03:33:51;1.63;;;0.90;;
19782;SDS011;10051;40.294;-3.754;2022-11-20T03:36:17;1.55;;;0.80;;
19782;SDS011;10051;40.294;-3.754;2022-11-20T03:38:44;1.95;;;0.85;;
19782;SDS011;10051;40.294;-3.754;2022-11-20T03:41:12;1.40;;;0.98;;
19782;SDS011;10051;40.294;-3.754;2022-11-20T03:43:39;1.48;;;0.80;;
19782;SDS011;10051;40.294;-3.754;2022-11-20T03:46:05;3.60;;;1.00;;
19782;SDS011;10051;40.294;-3.754;2022-11-20T03:48:32;2.60;;;0.88;;
19782;SDS011;10051;40.294;-3.754;2022-11-20T03:51:11;3.60;;;1.00;;
19782;SDS011;10051;40.294;-3.754;2022-11-20T03:53:42;2.08;;;1.00;;
19782;SDS011;10051;40.294;-3.754;2022-11-20T03:56:09;1.85;;;0.98;;
19782;SDS011;10051;40.294;-3.754;2022-11-20T03:58:36;1.90;;;0.90;;
19782;SDS011;10051;40.294;-3.754;2022-11-20T04:01:10;1.52;;;0.70;;
19782;SDS011;10051;40.294;-3.754;2022-11-20T04:03:37;1.65;;;0.90;;
19782;SDS011;10051;40.294;-3.754;2022-11-20T04:06:11;3.20;;;0.82;;
19782;SDS011;10051;40.294;-3.754;2022-11-20T04:08:44;2.78;;;0.80;;
19782;SDS011;10051;40.294;-3.754;2022-11-20T04:11:17;2.15;;;0.93;;
19782;SDS011;10051;40.294;-3.754;2022-11-20T04:13:48;1.58;;;1.00;;
19782;SDS011;10051;40.294;-3.754;2022-11-20T04:16:15;1.48;;;0.90;;
19782;SDS011;10051;40.294;-3.754;2022-11-20T04:18:41;3.22;;;1.00;;
19782;SDS011;10051;40.294;-3.754;2022-11-20T04:21:08;3.17;;;0.90;;
19782;SDS011;10051;40.294;-3.754;2022-11-20T04:23:34;1.70;;;1.00;;
19782;SDS011;10051;40.294;-3.754;2022-11-20T04:26:00;1.52;;;0.80;;
19782;SDS011;10051;40.294;-3.754;2022-11-20T04:28:27;2.13;;;0.80;;
19782;SDS011;10051;40.294;-3.754;2022-11-20T04:30:53;2.75;;;0.80;;
19782;SDS011;10051;40.294;-3.754;2022-11-20T04:33:18;2.95;;;0.95;;
19782;SDS011;10051;40.294;-3.754;2022-11-20T04:35:44;1.63;;;0.90;;
19782;SDS011;10051;40.294;-3.754;2022-11-20T04:38:12;1.77;;;0.80;;
19782;SDS011;10051;40.294;-3.754;2022-11-20T04:40:37;1.40;;;0.82;;
19782;SDS011;10051;40.294;-3.754;2022-11-20T04:43:03;2.40;;;0.82;;
19782;SDS011;10051;40.294;-3.754;2022-11-20T04:45:28;1.73;;;0.90;;
19782;SDS011;10051;40.294;-3.754;2022-11-20T04:47:54;1.77;;;0.80;;
19782;SDS011;10051;40.294;-3.754;2022-11-20T04:50:19;2.70;;;0.80;;
19782;SDS011;10051;40.294;-3.754;2022-11-20T04:52:45;3.63;;;1.13;;
19782;SDS011;10051;40.294;-3.754;2022-11-20T04:55:11;2.20;;;0.90;;
19782;SDS011;10051;40.294;-3.754;2022-11-20T04:57:36;2.63;;;1.00;;
19782;SDS011;10051;40.294;-3.754;2022-11-20T05:00:02;1.27;;;0.90;;
19782;SDS011;10051;40.294;-3.754;2022-11-20T05:02:30;2.67;;;1.00;;
19782;SDS011;10051;40.294;-3.754;2022-11-20T05:04:56;2.25;;;0.95;;
19782;SDS011;10051;40.294;-3.754;2022-11-20T05:07:21;2.70;;;1.08;;
19782;SDS011;10051;40.294;-3.754;2022-11-20T05:09:47;3.25;;;1.20;;
19782;SDS011;10051;40.294;-3.754;2022-11-20T05:12:12;5.07;;;1.50;;
19782;SDS011;10051;40.294;-3.754;2022-11-20T05:14:38;2.60;;;1.40;;
19782;SDS011;10051;40.294;-3.754;2022-11-20T05:17:03;3.17;;;1.45;;
19782;SDS011;10051;40.294;-3.754;2022-11-20T05:19:29;2.97;;;1.30;;
19782;SDS011;10051;40.294;-3.754;2022-11-20T05:21:54;2.58;;;1.27;;
19782;SDS011;10051;40.294;-3.754;2022-11-20T05:24:20;1.73;;;1.02;;
19782;SDS011;10051;40.294;-3.754;2022-11-20T05:26:45;1.95;;;0.95;;
19782;SDS011;10051;40.294;-3.754;2022-11-20T05:29:11;1.77;;;0.95;;
19782;SDS011;10051;40.294;-3.754;2022-11-20T05:31:38;2.17;;;0.90;;
19782;SDS011;10051;40.294;-3.754;2022-11-20T05:34:04;3.28;;;1.00;;
19782;SDS011;10051;40.294;-3.754;2022-11-20T05:36:30;2.15;;;0.70;;
19782;SDS011;10051;40.294;-3.754;2022-11-20T05:38:56;3.20;;;0.90;;
19782;SDS011;10051;40.294;-3.754;2022-11-20T05:41:21;2.38;;;0.90;;
19782;SDS011;10051;40.294;-3.754;2022-11-20T05:43:48;3.60;;;1.10;;
19782;SDS011;10051;40.294;-3.754;2022-11-20T05:46:15;3.10;;;1.00;;
19782;SDS011;10051;40.294;-3.754;2022-11-20T05:48:43;1.75;;;1.00;;
19782;SDS011;10051;40.294;-3.754;2022-11-20T05:51:09;2.80;;;1.20;;
19782;SDS011;10051;40.294;-3.754;2022-11-20T05:53:36;2.35;;;1.02;;
19782;SDS011;10051;40.294;-3.754;2022-11-20T05:56:03;3.03;;;1.10;;
19782;SDS011;10051;40.294;-3.754;2022-11-20T05:58:31;2.40;;;1.10;;
19782;SDS011;10051;40.294;-3.754;2022-11-20T06:03:33;3.10;;;0.98;;
19782;SDS011;10051;40.294;-3.754;2022-11-20T06:06:02;2.42;;;1.10;;
19782;SDS011;10051;40.294;-3.754;2022-11-20T06:08:29;2.58;;;1.10;;
19782;SDS011;10051;40.294;-3.754;2022-11-20T06:10:55;2.55;;;1.10;;
19782;SDS011;10051;40.294;-3.754;2022-11-20T06:13:20;3.40;;;1.10;;
19782;SDS011;10051;40.294;-3.754;2022-11-20T06:15:50;3.15;;;1.20;;
19782;SDS011;10051;40.294;-3.754;2022-11-20T06:18:17;1.90;;;1.15;;
19782;SDS011;10051;40.294;-3.754;2022-11-20T06:20:43;2.78;;;1.20;;
19782;SDS011;10051;40.294;-3.754;2022-11-20T06:23:09;1.70;;;1.10;;
19782;SDS011;10051;40.294;-3.754;2022-11-20T06:25:38;2.38;;;1.40;;
19782;SDS011;10051;40.294;-3.754;2022-11-20T06:28:05;4.07;;;1.23;;
19782;SDS011;10051;40.294;-3.754;2022-11-20T06:30:30;2.70;;;0.90;;
19782;SDS011;10051;40.294;-3.754;2022-11-20T06:32:56;3.20;;;1.23;;
19782;SDS011;10051;40.294;-3.754;2022-11-20T06:35:21;4.32;;;1.20;;
19782;SDS011;10051;40.294;-3.754;2022-11-20T06:37:47;2.60;;;1.05;;
19782;SDS011;10051;40.294;-3.754;2022-11-20T06:40:12;2.70;;;1.10;;
19782;SDS011;10051;40.294;-3.754;2022-11-20T06:42:38;2.25;;;1.20;;
19782;SDS011;10051;40.294;-3.754;2022-11-20T06:45:04;2.17;;;1.00;;
19782;SDS011;10051;40.294;-3.754;2022-11-20T06:47:30;3.65;;;1.33;;
19782;SDS011;10051;40.294;-3.754;2022-11-20T06:49:55;2.38;;;1.30;;
19782;SDS011;10051;40.294;-3.754;2022-11-20T06:52:20;3.92;;;1.45;;
19782;SDS011;10051;40.294;-3.754;2022-11-20T06:54:46;2.38;;;1.40;;
19782;SDS011;10051;40.294;-3.754;2022-11-20T06:57:12;3.13;;;1.27;;
19782;SDS011;10051;40.294;-3.754;2022-11-20T06:59:37;1.92;;;1.27;;
19782;SDS011;10051;40.294;-3.754;2022-11-20T07:02:03;2.50;;;1.27;;
19782;SDS011;10051;40.294;-3.754;2022-11-20T07:04:28;4.85;;;1.40;;
19782;SDS011;10051;40.294;-3.754;2022-11-20T07:06:54;3.67;;;1.30;;
19782;SDS011;10051;40.294;-3.754;2022-11-20T07:09:19;3.83;;;1.50;;
19782;SDS011;10051;40.294;-3.754;2022-11-20T07:11:45;3.50;;;1.50;;
19782;SDS011;10051;40.294;-3.754;2022-11-20T07:14:10;4.57;;;1.35;;
19782;SDS011;10051;40.294;-3.754;2022-11-20T07:16:36;3.10;;;1.42;;
19782;SDS011;10051;40.294;-3.754;2022-11-20T07:19:02;4.82;;;1.60;;
19782;SDS011;10051;40.294;-3.754;2022-11-20T07:21:27;3.97;;;1.50;;
19782;SDS011;10051;40.294;-3.754;2022-11-20T07:23:53;4.93;;;1.80;;
19782;SDS011;10051;40.294;-3.754;2022-11-20T07:26:18;4.47;;;1.40;;
19782;SDS011;10051;40.294;-3.754;2022-11-20T07:28:44;3.70;;;1.40;;
19782;SDS011;10051;40.294;-3.754;2022-11-20T07:31:10;3.10;;;1.48;;
19782;SDS011;10051;40.294;-3.754;2022-11-20T07:33:38;3.92;;;1.40;;
19782;SDS011;10051;40.294;-3.754;2022-11-20T07:36:04;4.35;;;1.58;;
19782;SDS011;10051;40.294;-3.754;2022-11-20T07:38:30;5.95;;;1.40;;
19782;SDS011;10051;40.294;-3.754;2022-11-20T07:40:56;5.65;;;1.85;;
19782;SDS011;10051;40.294;-3.754;2022-11-20T07:43:22;2.63;;;1.45;;
19782;SDS011;10051;40.294;-3.754;2022-11-20T07:45:49;2.42;;;1.42;;
19782;SDS011;10051;40.294;-3.754;2022-11-20T07:48:14;3.17;;;1.60;;
19782;SDS011;10051;40.294;-3.754;2022-11-20T07:50:40;4.47;;;1.63;;
19782;SDS011;10051;40.294;-3.754;2022-11-20T07:53:06;2.88;;;1.58;;
19782;SDS011;10051;40.294;-3.754;2022-11-20T07:55:32;2.60;;;1.60;;
19782;SDS011;10051;40.294;-3.754;2022-11-20T07:58:00;3.90;;;1.63;;
19782;SDS011;10051;40.294;-3.754;2022-11-20T08:00:26;3.33;;;1.60;;
19782;SDS011;10051;40.294;-3.754;2022-11-20T08:02:52;7.20;;;1.50;;
19782;SDS011;10051;40.294;-3.754;2022-11-20T08:05:17;5.68;;;2.03;;
19782;SDS011;10051;40.294;-3.754;2022-11-20T08:07:43;3.30;;;1.60;;
19782;SDS011;10051;40.294;-3.754;2022-11-20T08:10:10;3.85;;;1.52;;
19782;SDS011;10051;40.294;-3.754;2022-11-20T08:12:46;4.13;;;1.73;;
19782;SDS011;10051;40.294;-3.754;2022-11-20T08:15:32;3.47;;;1.50;;
19782;SDS011;10051;40.294;-3.754;2022-11-20T08:18:05;2.42;;;1.52;;
19782;SDS011;10051;40.294;-3.754;2022-11-20T08:20:32;3.58;;;1.60;;
19782;SDS011;10051;40.294;-3.754;2022-11-20T08:23:00;4.13;;;1.50;;
19782;SDS011;10051;40.294;-3.754;2022-11-20T08:25:28;3.13;;;1.80;;
19782;SDS011;10051;40.294;-3.754;2022-11-20T08:27:57;4.45;;;1.70;;
19782;SDS011;10051;40.294;-3.754;2022-11-20T08:30:23;2.45;;;1.55;;
19782;SDS011;10051;40.294;-3.754;2022-11-20T08:32:49;5.43;;;1.70;;
19782;SDS011;10051;40.294;-3.754;2022-11-20T08:35:14;3.15;;;1.75;;
19782;SDS011;10051;40.294;-3.754;2022-11-20T08:37:40;3.60;;;1.70;;
19782;SDS011;10051;40.294;-3.754;2022-11-20T08:40:08;4.50;;;1.90;;
19782;SDS011;10051;40.294;-3.754;2022-11-20T08:42:35;4.95;;;2.10;;
19782;SDS011;10051;40.294;-3.754;2022-11-20T08:45:00;3.75;;;1.73;;
19782;SDS011;10051;40.294;-3.754;2022-11-20T08:47:26;3.60;;;1.90;;
19782;SDS011;10051;40.294;-3.754;2022-11-20T08:49:52;3.75;;;1.90;;
19782;SDS011;10051;40.294;-3.754;2022-11-20T08:52:17;3.65;;;2.13;;
19782;SDS011;10051;40.294;-3.754;2022-11-20T08:54:43;5.30;;;2.20;;
19782;SDS011;10051;40.294;-3.754;2022-11-20T08:57:08;4.25;;;2.08;;
19782;SDS011;10051;40.294;-3.754;2022-11-20T08:59:34;4.68;;;2.10;;
19782;SDS011;10051;40.294;-3.754;2022-11-20T09:01:59;4.53;;;1.92;;
19782;SDS011;10051;40.294;-3.754;2022-11-20T09:04:25;5.05;;;2.40;;
19782;SDS011;10051;40.294;-3.754;2022-11-20T09:06:50;6.85;;;2.35;;
19782;SDS011;10051;40.294;-3.754;2022-11-20T09:09:17;6.28;;;2.10;;
19782;SDS011;10051;40.294;-3.754;2022-11-20T09:11:43;5.82;;;2.65;;
19782;SDS011;10051;40.294;-3.754;2022-11-20T09:14:09;6.00;;;2.60;;
19782;SDS011;10051;40.294;-3.754;2022-11-20T09:16:34;4.35;;;2.70;;
19782;SDS011;10051;40.294;-3.754;2022-11-20T09:19:00;5.10;;;2.50;;
19782;SDS011;10051;40.294;-3.754;2022-11-20T09:21:25;3.50;;;2.30;;
19782;SDS011;10051;40.294;-3.754;2022-11-20T09:23:51;4.25;;;2.17;;
19782;SDS011;10051;40.294;-3.754;2022-11-20T09:26:16;4.22;;;2.00;;
19782;SDS011;10051;40.294;-3.754;2022-11-20T09:28:42;4.13;;;2.15;;
19782;SDS011;10051;40.294;-3.754;2022-11-20T09:31:08;3.72;;;2.10;;
19782;SDS011;10051;40.294;-3.754;2022-11-20T09:33:47;4.40;;;2.30;;
19782;SDS011;10051;40.294;-3.754;2022-11-20T09:36:12;7.75;;;2.72;;
19782;SDS011;10051;40.294;-3.754;2022-11-20T09:38:38;7.63;;;3.17;;
19782;SDS011;10051;40.294;-3.754;2022-11-20T09:41:04;8.73;;;4.05;;
19782;SDS011;10051;40.294;-3.754;2022-11-20T09:43:41;5.72;;;2.75;;
19782;SDS011;10051;40.294;-3.754;2022-11-20T09:51:57;3.63;;;2.20;;
19782;SDS011;10051;40.294;-3.754;2022-11-20T09:54:26;3.75;;;2.00;;
19782;SDS011;10051;40.294;-3.754;2022-11-20T09:56:59;5.70;;;2.60;;
19782;SDS011;10051;40.294;-3.754;2022-11-20T10:04:55;3.47;;;1.80;;
19782;SDS011;10051;40.294;-3.754;2022-11-20T10:07:33;4.68;;;2.08;;
19782;SDS011;10051;40.294;-3.754;2022-11-20T10:10:13;6.05;;;3.00;;
19782;SDS011;10051;40.294;-3.754;2022-11-20T10:20:49;3.15;;;1.90;;
19782;SDS011;10051;40.294;-3.754;2022-11-20T10:23:31;3.90;;;1.90;;
19782;SDS011;10051;40.294;-3.754;2022-11-20T10:26:03;3.42;;;1.83;;
19782;SDS011;10051;40.294;-3.754;2022-11-20T10:31:34;3.25;;;1.73;;
19782;SDS011;10051;40.294;-3.754;2022-11-20T10:34:05;3.67;;;1.90;;
19782;SDS011;10051;40.294;-3.754;2022-11-20T10:36:58;3.47;;;1.90;;
19782;SDS011;10051;40.294;-3.754;2022-11-20T10:39:31;4.95;;;2.00;;
19782;SDS011;10051;40.294;-3.754;2022-11-20T10:42:00;3.25;;;2.00;;
19782;SDS011;10051;40.294;-3.754;2022-11-20T10:44:27;3.53;;;2.10;;
19782;SDS011;10051;40.294;-3.754;2022-11-20T10:47:13;5.57;;;2.28;;
19782;SDS011;10051;40.294;-3.754;2022-11-20T10:49:41;5.03;;;2.20;;
19782;SDS011;10051;40.294;-3.754;2022-11-20T10:55:11;3.92;;;2.00;;
19782;SDS011;10051;40.294;-3.754;2022-11-20T11:01:02;3.97;;;1.77;;
19782;SDS011;10051;40.294;-3.754;2022-11-20T11:03:31;3.83;;;2.00;;
19782;SDS011;10051;40.294;-3.754;2022-11-20T11:06:06;6.40;;;2.17;;
19782;SDS011;10051;40.294;-3.754;2022-11-20T11:08:37;4.65;;;2.30;;
19782;SDS011;10051;40.294;-3.754;2022-11-20T11:11:24;3.22;;;2.10;;
19782;SDS011;10051;40.294;-3.754;2022-11-20T11:13:52;3.92;;;2.17;;
19782;SDS011;10051;40.294;-3.754;2022-11-20T11:16:25;5.28;;;1.63;;
19782;SDS011;10051;40.294;-3.754;2022-11-20T11:18:52;3.42;;;2.10;;
19782;SDS011;10051;40.294;-3.754;2022-11-20T11:21:31;4.55;;;1.98;;
19782;SDS011;10051;40.294;-3.754;2022-11-20T11:24:00;4.20;;;2.22;;
19782;SDS011;10051;40.294;-3.754;2022-11-20T11:26:28;2.13;;;1.40;;
19782;SDS011;10051;40.294;-3.754;2022-11-20T11:31:29;2.03;;;1.20;;
19782;SDS011;10051;40.294;-3.754;2022-11-20T11:34:06;3.25;;;1.63;;
19782;SDS011;10051;40.294;-3.754;2022-11-20T11:36:39;3.88;;;2.40;;
19782;SDS011;10051;40.294;-3.754;2022-11-20T11:39:05;3.63;;;2.05;;
19782;SDS011;10051;40.294;-3.754;2022-11-20T11:41:39;5.00;;;1.60;;
19782;SDS011;10051;40.294;-3.754;2022-11-20T11:44:21;3.10;;;1.70;;
19782;SDS011;10051;40.294;-3.754;2022-11-20T11:56:12;4.88;;;1.80;;
19782;SDS011;10051;40.294;-3.754;2022-11-20T11:58:48;3.10;;;1.60;;
19782;SDS011;10051;40.294;-3.754;2022-11-20T12:04:19;2.55;;;1.40;;
19782;SDS011;10051;40.294;-3.754;2022-11-20T12:07:03;2.15;;;1.33;;
19782;SDS011;10051;40.294;-3.754;2022-11-20T12:09:38;2.63;;;1.50;;
19782;SDS011;10051;40.294;-3.754;2022-11-20T12:12:10;4.30;;;1.40;;
19782;SDS011;10051;40.294;-3.754;2022-11-20T12:14:42;2.75;;;1.58;;
19782;SDS011;10051;40.294;-3.754;2022-11-20T12:17:14;3.28;;;1.30;;
19782;SDS011;10051;40.294;-3.754;2022-11-20T12:19:40;3.03;;;1.23;;
19782;SDS011;10051;40.294;-3.754;2022-11-20T12:30:21;4.47;;;1.90;;
19782;SDS011;10051;40.294;-3.754;2022-11-20T12:43:29;3.75;;;1.92;;
19782;SDS011;10051;40.294;-3.754;2022-11-20T13:00:58;4.13;;;1.73;;
19782;SDS011;10051;40.294;-3.754;2022-11-20T13:03:37;3.22;;;1.80;;
19782;SDS011;10051;40.294;-3.754;2022-11-20T13:08:47;2.55;;;1.48;;
19782;SDS011;10051;40.294;-3.754;2022-11-20T13:16:33;2.15;;;1.00;;
19782;SDS011;10051;40.294;-3.754;2022-11-20T13:19:27;2.45;;;1.13;;
19782;SDS011;10051;40.294;-3.754;2022-11-20T13:21:53;1.60;;;1.00;;
19782;SDS011;10051;40.294;-3.754;2022-11-20T13:26:44;2.15;;;1.20;;
19782;SDS011;10051;40.294;-3.754;2022-11-20T13:29:11;3.00;;;1.20;;
19782;SDS011;10051;40.294;-3.754;2022-11-20T13:31:45;3.17;;;1.02;;
19782;SDS011;10051;40.294;-3.754;2022-11-20T13:34:13;2.83;;;1.10;;
19782;SDS011;10051;40.294;-3.754;2022-11-20T13:36:49;1.17;;;1.00;;
19782;SDS011;10051;40.294;-3.754;2022-11-20T13:39:27;2.05;;;1.20;;
19782;SDS011;10051;40.294;-3.754;2022-11-20T13:45:01;1.90;;;1.30;;
19782;SDS011;10051;40.294;-3.754;2022-11-20T13:47:33;3.58;;;1.30;;
19782;SDS011;10051;40.294;-3.754;2022-11-20T13:50:02;2.92;;;1.52;;
19782;SDS011;10051;40.294;-3.754;2022-11-20T14:03:48;1.83;;;1.20;;
19782;SDS011;10051;40.294;-3.754;2022-11-20T14:06:48;1.60;;;1.10;;
19782;SDS011;10051;40.294;-3.754;2022-11-20T14:09:12;2.42;;;1.42;;
19782;SDS011;10051;40.294;-3.754;2022-11-20T14:11:50;2.08;;;0.90;;
19782;SDS011;10051;40.294;-3.754;2022-11-20T14:14:17;1.42;;;0.90;;
19782;SDS011;10051;40.294;-3.754;2022-11-20T14:16:44;1.58;;;1.00;;
19782;SDS011;10051;40.294;-3.754;2022-11-20T14:21:45;1.63;;;0.90;;
19782;SDS011;10051;40.294;-3.754;2022-11-20T14:24:23;1.17;;;0.80;;
19782;SDS011;10051;40.294;-3.754;2022-11-20T14:26:50;1.67;;;0.90;;
19782;SDS011;10051;40.294;-3.754;2022-11-20T14:29:26;0.90;;;0.77;;
19782;SDS011;10051;40.294;-3.754;2022-11-20T14:31:54;1.35;;;1.00;;
19782;SDS011;10051;40.294;-3.754;2022-11-20T14:34:22;1.23;;;0.90;;
19782;SDS011;10051;40.294;-3.754;2022-11-20T14:36:57;1.65;;;1.02;;
19782;SDS011;10051;40.294;-3.754;2022-11-20T14:39:29;2.38;;;1.00;;
19782;SDS011;10051;40.294;-3.754;2022-11-20T14:41:58;0.93;;;0.60;;
19782;SDS011;10051;40.294;-3.754;2022-11-20T14:44:26;1.80;;;0.55;;
19782;SDS011;10051;40.294;-3.754;2022-11-20T14:46:54;0.70;;;0.60;;
19782;SDS011;10051;40.294;-3.754;2022-11-20T14:49:21;1.58;;;0.80;;
19782;SDS011;10051;40.294;-3.754;2022-11-20T14:51:57;0.90;;;0.80;;
19782;SDS011;10051;40.294;-3.754;2022-11-20T14:54:46;2.40;;;1.10;;
19782;SDS011;10051;40.294;-3.754;2022-11-20T14:57:34;1.85;;;1.33;;
19782;SDS011;10051;40.294;-3.754;2022-11-20T15:00:07;1.15;;;0.80;;
19782;SDS011;10051;40.294;-3.754;2022-11-20T15:02:45;2.40;;;1.20;;
19782;SDS011;10051;40.294;-3.754;2022-11-20T15:05:12;2.00;;;1.30;;
19782;SDS011;10051;40.294;-3.754;2022-11-20T15:07:41;1.98;;;1.30;;
19782;SDS011;10051;40.294;-3.754;2022-11-20T15:10:12;1.48;;;1.20;;
19782;SDS011;10051;40.294;-3.754;2022-11-20T15:12:49;2.63;;;1.50;;
19782;SDS011;10051;40.294;-3.754;2022-11-20T15:15:21;3.75;;;2.40;;
19782;SDS011;10051;40.294;-3.754;2022-11-20T15:17:53;4.93;;;3.15;;
19782;SDS011;10051;40.294;-3.754;2022-11-20T15:20:19;11.48;;;4.60;;
19782;SDS011;10051;40.294;-3.754;2022-11-20T15:22:50;15.02;;;6.15;;
19782;SDS011;10051;40.294;-3.754;2022-11-20T15:25:17;13.43;;;5.68;;
19782;SDS011;10051;40.294;-3.754;2022-11-20T15:27:42;10.55;;;5.10;;
19782;SDS011;10051;40.294;-3.754;2022-11-20T15:30:18;7.45;;;4.40;;
19782;SDS011;10051;40.294;-3.754;2022-11-20T15:32:45;8.50;;;3.90;;
19782;SDS011;10051;40.294;-3.754;2022-11-20T15:35:12;6.45;;;4.00;;
19782;SDS011;10051;40.294;-3.754;2022-11-20T15:37:39;7.78;;;3.70;;
19782;SDS011;10051;40.294;-3.754;2022-11-20T15:40:06;4.78;;;2.70;;
19782;SDS011;10051;40.294;-3.754;2022-11-20T15:42:32;4.32;;;2.40;;
19782;SDS011;10051;40.294;-3.754;2022-11-20T15:44:59;5.13;;;3.10;;
19782;SDS011;10051;40.294;-3.754;2022-11-20T15:47:25;6.57;;;3.53;;
19782;SDS011;10051;40.294;-3.754;2022-11-20T15:49:56;3.30;;;2.10;;
19782;SDS011;10051;40.294;-3.754;2022-11-20T15:52:22;3.28;;;1.95;;
19782;SDS011;10051;40.294;-3.754;2022-11-20T15:54:48;2.78;;;1.60;;
19782;SDS011;10051;40.294;-3.754;2022-11-20T15:57:13;3.85;;;1.70;;
19782;SDS011;10051;40.294;-3.754;2022-11-20T15:59:39;2.50;;;1.88;;
19782;SDS011;10051;40.294;-3.754;2022-11-20T16:02:12;2.03;;;1.60;;
19782;SDS011;10051;40.294;-3.754;2022-11-20T16:04:39;4.70;;;2.45;;
19782;SDS011;10051;40.294;-3.754;2022-11-20T16:07:05;5.80;;;3.20;;
19782;SDS011;10051;40.294;-3.754;2022-11-20T16:09:31;4.50;;;2.05;;
19782;SDS011;10051;40.294;-3.754;2022-11-20T16:11:57;4.07;;;2.55;;
19782;SDS011;10051;40.294;-3.754;2022-11-20T16:14:24;4.53;;;2.33;;
19782;SDS011;10051;40.294;-3.754;2022-11-20T16:17:10;3.78;;;2.10;;
19782;SDS011;10051;40.294;-3.754;2022-11-20T16:19:36;4.55;;;2.67;;
19782;SDS011;10051;40.294;-3.754;2022-11-20T16:22:01;6.53;;;4.43;;
19782;SDS011;10051;40.294;-3.754;2022-11-20T16:24:27;4.30;;;3.03;;
19782;SDS011;10051;40.294;-3.754;2022-11-20T16:26:53;1.95;;;1.70;;
19782;SDS011;10051;40.294;-3.754;2022-11-20T16:29:19;1.95;;;1.40;;
19782;SDS011;10051;40.294;-3.754;2022-11-20T16:31:45;1.90;;;1.40;;
19782;SDS011;10051;40.294;-3.754;2022-11-20T16:34:11;2.22;;;1.30;;
19782;SDS011;10051;40.294;-3.754;2022-11-20T16:36:38;2.55;;;1.10;;